logo
App data

Discovery! A Seek and Find Adventure

Break out your magnifying glass and passport-It's time for Discovery!, the seek-and-find game show with your host, Jerry Landers and the beautiful Jill Summers. Step up to the wheel, and choose today's adventure! Will it be Spain, China, Australia, or one of three other fabulous international hot spots?
Store | Hub | SteamDB
Developer: MumboJumbo Publisher: MumboJumbo
Genre: Casual
Languages: English
Tags: Casual (25), Hidden Object (9)
Category: Single-player
Release date: Jul 29, 2008
Price: $9.99
Owners: 0 .. 20,000
Followers: 95
Peak concurrent players yesterday: 3
Playtime total: 02:36 (average) 03:48 (median)

Steam Spy is still in beta, so expect major bugs.

Owners data:

Access restricted.

This feature is only available to users with special access rights. Sorry.

If you want to proceed, you need to register or log in first and then back Steam Spy on Patreon. Look for Indie or Pro pledge.

Don't forget to use the same email as on Steam Spy!

Audience in 2 weeks:

Access restricted.

This feature is only available to users with special access rights. Sorry.

If you want to proceed, you need to register or log in first and then back Steam Spy on Patreon. Look for Indie or Pro pledge.

Don't forget to use the same email as on Steam Spy!

Peak daily concurrent players:

CCU data courtesy of SteamDB. Used with permission.

Hourly concurrent players:

YouTube:

The views data is based on top 50 videos uploaded last week. Actual number of views might be more than the number shown.

The displayed number of videos uploaded yesterday is limited to 50, so if there were more videos uploaded, the number will still show 50.

If the game has commonly used word as its name (like "FEAR" or "Volume") its number of Youtube views might be wrong.

Games similar to this one:

# Game Release date
Price
Score rank
(Userscore / Metascore)
Owners
Players
Playtime (Median)
1 Teddy Floppy Ear - The Race May 22, 2015 $4.99N/A (N/A)100,000 .. 200,0000.28%06:32 (02:10)
2 aerofly RC 7 Nov 6, 2014 $39.99N/A (N/A)0 .. 20,0000%00:00 (00:00)
3 Zooloretto Nov 1, 2011 $2.99N/A (N/A)0 .. 20,0000%00:00 (00:00)
4 Hotel Dash Suite Success Dec 24, 2009 $6.99N/A (N/A)0 .. 20,0000%00:00 (00:00)
5 Pacific Storm Allies May 25, 2007 $7.99N/A (N/A/60%)50,000 .. 100,0000%00:00 (00:00)
6 Super Jagua Sep 15, 2016 $0.99N/A (N/A)0 .. 20,0000%00:00 (00:00)
7 Rush for gold: California Mar 9, 2016 $3.99N/A (N/A)20,000 .. 50,0000%00:00 (00:00)
8 Toilet Tycoon Mar 1, 2000 $4.99N/A (N/A)0 .. 20,0000%00:00 (00:00)
9 Legends of Atlantis: Exodus Apr 9, 2012 $6.99N/A (N/A)0 .. 20,0000%00:00 (00:00)
10 Pure Pool Jul 31, 2014 $9.99N/A (N/A/68%)0 .. 20,0000%00:00 (00:00)
11 Professional Farmer 2014 Nov 27, 2013 $14.99N/A (N/A)200,000 .. 500,0000%00:00 (00:00)
12 Puzzler World May 28, 2010 $4.99N/A (N/A)50,000 .. 100,0000%00:00 (00:00)
13 House of Snark 6-in-1 Bundle Jul 17, 2016 $11.99N/A (N/A)0 .. 20,0000%00:00 (00:00)
14 Democracy 3 Africa Apr 12, 2016 $14.99N/A (N/A)50,000 .. 100,0000%00:00 (00:00)
15 Football Mogul 2014 Sep 4, 2013 $0.99N/A (N/A)0 .. 20,0000%00:00 (00:00)
16 Black Viper: Sophia's Fate Sep 5, 2014 $9.99N/A (N/A)0 .. 20,0000%00:00 (00:00)
17 Putt-Putt and Pep's Balloon-o-Rama Jan 1, 1996 $4.99N/A (N/A)0 .. 20,0000%00:00 (00:00)
18 Hacker Evolution: Untold Sep 14, 2010 $4.99N/A (N/A)200,000 .. 500,0000.15%00:30 (00:10)
19 Luxor 3 Nov 13, 2007 $9.99N/A (N/A)20,000 .. 50,0000.62%02:17 (00:45)
20 Princess Maker 2 Refine Sep 28, 2016 $19.99N/A (N/A)20,000 .. 50,0000%00:00 (00:00)
21 Tropical Fish Shop 2 Feb 10, 2012 $3.99N/A (N/A)20,000 .. 50,0000%00:00 (00:00)
22 Lost Legends: The Weeping Woman Collector's Edition Oct 21, 2015 $14.99N/A (N/A)20,000 .. 50,0000%00:00 (00:00)
23 Hidden Object Bundle 4 in 1 Jun 1, 2014 $7.99N/A (N/A)20,000 .. 50,0000%00:00 (00:00)
24 300 Dwarves Jun 17, 2013 $6.99N/A (N/A)20,000 .. 50,0000%00:00 (00:00)
25 Shufflepuck Cantina Deluxe Dec 6, 2013 $9.99N/A (N/A)100,000 .. 200,0000%00:00 (00:00)
26 Combat Wings: Battle of Britain Oct 14, 2009 $4.99N/A (N/A)100,000 .. 200,0000%00:00 (00:00)
27 Chuzzle Deluxe Aug 30, 2006 $4.99N/A (N/A)50,000 .. 100,0000%00:00 (00:00)
28 Ludo Supremo Jun 8, 2016 $1.99N/A (N/A)20,000 .. 50,0000%00:00 (00:00)
29 Solitaire Christmas. Match 2 Cards Dec 24, 2015 $4.99N/A (N/A)50,000 .. 100,0000%00:00 (00:00)
30 Lost Lands: The Four Horsemen Jul 14, 2015 $2.44N/A (N/A)0 .. 20,0003.85%02:27 (00:49)
31 Sea Legends: Phantasmal Light Collector's Edition Jan 15, 2012 $4.99N/A (N/A)50,000 .. 100,0000%00:00 (00:00)
32 Steel Armor: Blaze of War Mar 5, 2015 $29.99N/A (N/A/70%)0 .. 20,00011.11%00:32 (00:10)
33 YOU DON’T KNOW JACK Feb 8, 2011 N/AN/A (N/A/71%)0 .. 20,0000%00:00 (00:00)
34 Little Farm Jun 10, 2008 $9.99N/A (N/A)20,000 .. 50,0000%00:00 (00:00)
35 Chess Knight 2 Sep 11, 2016 $2.99N/A (N/A)50,000 .. 100,0000%00:00 (00:00)
36 Flowers -Le volume sur printemps- Aug 17, 2016 $19.99N/A (N/A)0 .. 20,00015%08:33 (03:05)
37 Meridian: Age of Invention Jan 28, 2013 $2.99N/A (N/A)20,000 .. 50,0000%00:00 (00:00)
38 Trackday Manager Mar 31, 2016 N/AN/A (N/A)0 .. 20,0000%00:00 (00:00)
39 Castle: Never Judge a Book by its Cover Jul 9, 2013 N/AN/A (N/A)50,000 .. 100,0000%00:00 (00:00)
40 Shadows: Price For Our Sins Bonus Edition Mar 21, 2013 $9.99N/A (N/A)50,000 .. 100,0000%00:00 (00:00)
41 Tradewinds Classics Jul 17, 2009 $4.99N/A (N/A)0 .. 20,0000%00:00 (00:00)
42 Typer Shark! Deluxe Aug 30, 2006 $4.99N/A (N/A)20,000 .. 50,0000%00:00 (00:00)
43 Ant Queen Jun 15, 2016 $3.99N/A (N/A)0 .. 20,0000%00:00 (00:00)
44 Gems of the Aztecs Apr 22, 2016 $4.99N/A (N/A)50,000 .. 100,0000%00:00 (00:00)
45 Trackmania Turbo Mar 24, 2016 $39.99N/A (N/A)50,000 .. 100,0000%00:00 (00:00)
46 Football Club Simulator - FCS NS#19 Nov 30, 2018 $9.95N/A (N/A)20,000 .. 50,0000%00:00 (00:00)
47 LogicBots Feb 8, 2017 $19.99N/A (N/A)0 .. 20,0000%00:00 (00:00)
48 Rotastic Oct 11, 2012 $9.99N/A (N/A)0 .. 20,0000%00:00 (00:00)
49 7 Wonders: Treasures of Seven Nov 14, 2008 $9.99N/A (N/A)20,000 .. 50,0000.71%00:01 (00:00)
50 Lost Grimoires: Stolen Kingdom Nov 10, 2016 $9.99N/A (N/A)0 .. 20,0000%00:00 (00:00)
51 Nokori Mar 25, 2016 $0.99N/A (N/A)0 .. 20,0000%00:00 (00:00)
52 Twisted Lands Trilogy: Collector's Edition Oct 28, 2015 $19.99N/A (N/A)20,000 .. 50,0000%00:00 (00:00)
53 Airport Firefighters - The Simulation May 13, 2015 $17.99N/A (N/A)20,000 .. 50,0000%00:00 (00:00)
54 Railroad Pioneer Oct 17, 2003 $4.99N/A (N/A/50%)0 .. 20,0004.17%00:04 (00:01)
55 Little Racers STREET Feb 6, 2014 $5.99N/A (N/A/62%)100,000 .. 200,0000.29%00:15 (00:05)
56 Chocolatier: Decadence by Design Aug 12, 2009 $9.99N/A (N/A)0 .. 20,0000%00:00 (00:00)
57 Amazing Adventures The Lost Tomb Nov 5, 2007 $4.99N/A (N/A)20,000 .. 50,0000%00:00 (00:00)
58 Evolution Planet: Gold Edition Jul 7, 2016 $4.99N/A (N/A)0 .. 20,0000%00:00 (00:00)
59 Stikbold! A Dodgeball Adventure Apr 1, 2016 $9.99N/A (N/A)50,000 .. 100,0000%00:00 (00:00)
60 Splendor Sep 17, 2015 $9.99N/A (N/A)0 .. 20,0000%00:00 (00:00)
61 StuntMANIA Reloaded Nov 13, 2014 $2.49N/A (N/A)20,000 .. 50,0000%00:00 (00:00)
62 Industry Empire Jul 30, 2014 $11.99N/A (N/A)20,000 .. 50,0008.33%00:21 (00:07)
63 Aerofly FS 1 Flight Simulator Oct 17, 2012 $19.99N/A (N/A)0 .. 20,0000%00:00 (00:00)
64 Luxor: Quest for the Afterlife Dec 15, 2008 $9.99N/A (N/A)0 .. 20,0000%00:00 (00:00)
65 Delicious! Pretty Girls Mahjong Solitaire Oct 14, 2016 $0.99N/A (N/A)50,000 .. 100,0001.67%05:08 (05:08)
66 Grim Legends 3: The Dark City Jun 2, 2016 $9.99N/A (N/A)50,000 .. 100,0000%00:00 (00:00)
67 Fill Up! Feb 17, 2016 $2.99N/A (N/A)0 .. 20,0000%00:00 (00:00)
68 Ghost Encounters: Deadwood - Collector's Edition Mar 13, 2015 $1.99N/A (N/A)20,000 .. 50,0000%00:00 (00:00)
69 IL-2 Sturmovik: Battle of Stalingrad Oct 22, 2014 $49.99N/A (N/A/74%)50,000 .. 100,00012.33%02:41 (02:04)
70 Ski Region Simulator - Gold Edition Jan 16, 2013 $8.99N/A (N/A)20,000 .. 50,0002.44%01:15 (00:25)
71 Cooking Dash Aug 12, 2009 $9.99N/A (N/A)0 .. 20,00020%00:25 (00:08)
72 Amazing Adventures Around the World Sep 17, 2008 $4.99N/A (N/A)20,000 .. 50,0000%00:00 (00:00)
73 Barnyard Mahjong 3 Jul 29, 2016 $1.99N/A (N/A)50,000 .. 100,0000%00:00 (00:00)
74 PAC-MAN CHAMPIONSHIP EDITION 2 Sep 13, 2016 $12.99N/A (N/A)50,000 .. 100,0000%00:00 (00:00)
75 Chronicle Keepers: The Dreaming Garden Jun 11, 2015 $4.99N/A (N/A)0 .. 20,0000%00:00 (00:00)
76 Brink of Consciousness: The Lonely Hearts Murders Nov 24, 2014 $9.99N/A (N/A)0 .. 20,0000%00:00 (00:00)
77 Rube Works: The Official Rube Goldberg Invention Game Apr 19, 2014 $4.99N/A (N/A)0 .. 20,0000%00:00 (00:00)
78 Lords of Football Apr 5, 2013 $14.99N/A (N/A/52%)20,000 .. 50,0000%00:00 (00:00)
79 Virtual Villagers: The Lost Children Feb 14, 2007 $9.99N/A (N/A)0 .. 20,0000%00:00 (00:00)
80 Dessert Storm Oct 23, 2016 $0.99N/A (N/A)50,000 .. 100,0000%00:00 (00:00)
81 Princess Isabella: The Rise of an Heir May 12, 2016 $9.99N/A (N/A)20,000 .. 50,0000%00:00 (00:00)
82 Eventide: Slavic Fable Jan 28, 2016 $2.99N/A (N/A)50,000 .. 100,0000%00:00 (00:00)
83 Switch Galaxy Ultra Nov 20, 2015 $9.99N/A (N/A)20,000 .. 50,0001.23%02:04 (00:41)
84 Buzz Aldrin's Space Program Manager Oct 31, 2014 $11.99N/A (N/A/62%)0 .. 20,0000%00:00 (00:00)
85 Transport Giant Jun 8, 2004 $9.99N/A (N/A)100,000 .. 200,0000%00:00 (00:00)
86 DinerTown Tycoon Sep 30, 2009 $9.99N/A (N/A)0 .. 20,0000%00:00 (00:00)
87 Peggle Nights Oct 15, 2008 $4.99N/A (N/A/76%)200,000 .. 500,0002.25%05:25 (04:32)
88 The Hidden Dragon Jul 26, 2016 $2.99N/A (N/A)0 .. 20,0000%00:00 (00:00)
89 Alice's Patchwork Mar 3, 2016 $4.99N/A (N/A)20,000 .. 50,0001.06%02:53 (01:24)
90 Mahjong Pretty Girls Battle : School Girls Edition Jun 22, 2015 $14.99N/A (N/A)20,000 .. 50,0000.78%05:06 (01:42)
91 Adventures of Robinson Crusoe Jan 9, 2015 $9.99N/A (N/A)20,000 .. 50,0000%00:00 (00:00)
92 Qvadriga Jun 13, 2014 $4.79N/A (N/A/72%)20,000 .. 50,0000%00:00 (00:00)
93 Cities XL Platinum Feb 6, 2013 $9.99N/A (N/A)200,000 .. 500,0000.17%00:54 (00:18)
94 Plant Tycoon Sep 27, 2007 $9.99N/A (N/A)0 .. 20,0000%00:00 (00:00)
95 Bubble Blowout Oct 24, 2016 $0.99N/A (N/A)50,000 .. 100,0000%00:00 (00:00)
96 Farming 6-in-1 bundle Jun 2, 2016 $5.99N/A (N/A)0 .. 20,0000%00:00 (00:00)
97 Eagle Flight Dec 20, 2016 $19.99N/A (N/A/74%)0 .. 20,0000%00:00 (00:00)
98 Crash Dive Jul 6, 2015 $6.99N/A (N/A)0 .. 20,0000%00:00 (00:00)
99 Echelon Apr 15, 2001 $3.99N/A (N/A/70%)0 .. 20,0001.52%00:08 (00:02)
100 Driving School Simulator Sep 25, 2014 $14.99N/A (N/A)0 .. 20,0005.88%00:05 (00:01)
101 Farm Frenzy 2 Aug 27, 2008 $4.99N/A (N/A)0 .. 20,0000%00:00 (00:00)
102 The Wizard's Pen Sep 16, 2008 $4.99N/A (N/A)20,000 .. 50,0000%00:00 (00:00)
103 Kitty Cat: Jigsaw Puzzles Jul 18, 2016 $0.99N/A (N/A)50,000 .. 100,0000%00:00 (00:00)
104 Hidden Object 6-in-1 bundle Mar 16, 2016 $11.99N/A (N/A)20,000 .. 50,0000%00:00 (00:00)
105 MiniDrivers Aug 20, 2015 $5.99N/A (N/A)20,000 .. 50,0001.35%02:29 (00:49)
106 SimpleRockets Jun 3, 2015 $7.99N/A (N/A)20,000 .. 50,0000%00:00 (00:00)
107 Cosplay Maker Dec 10, 2015 $14.99N/A (N/A)0 .. 20,0000%00:00 (00:00)
108 Scrabble Jun 10, 2013 $9.99N/A (N/A)0 .. 20,0000%00:00 (00:00)
109 Burnout Paradise: The Ultimate Box Feb 3, 2009 $19.99N/A (N/A/87%)1,000,000 .. 2,000,0000.75%02:38 (01:02)
110 Block Blowout Oct 26, 2016 $0.99N/A (N/A)50,000 .. 100,0000%00:00 (00:00)
111 Space Codex May 9, 2016 $0.99N/A (N/A)100,000 .. 200,0000%00:00 (00:00)
112 Contract With The Devil Dec 11, 2015 $0.49N/A (N/A)20,000 .. 50,0000%00:00 (00:00)
113 Obliteracers Feb 23, 2016 $14.99N/A (N/A/78%)20,000 .. 50,0002.33%01:14 (00:24)
114 Echelon: Wind Warriors Feb 3, 2004 $3.99N/A (N/A/63%)0 .. 20,0004.76%04:12 (01:24)
115 My Riding Stables: Life with Horses Mar 27, 2014 $14.99N/A (N/A)0 .. 20,0000%00:00 (00:00)
116 Silent Hunter 5: Battle of the Atlantic Mar 2010 $9.99N/A (N/A/62%)100,000 .. 200,0003.64%05:06 (03:23)
117 City Life 2008 Jul 18, 2008 $9.99N/A (N/A)20,000 .. 50,0000%00:00 (00:00)
118 Fantastic 4 In A Row 2 Aug 15, 2016 $0.99N/A (N/A)50,000 .. 100,0000%00:00 (00:00)
119 Gnomes Garden 2 May 18, 2016 $0.49N/A (N/A)20,000 .. 50,0000%00:00 (00:00)
120 Luxury Hotel Emporium Aug 7, 2015 $4.99N/A (N/A)0 .. 20,0000%00:00 (00:00)
121 Mystery Masters: Psycho Train Deluxe Edition Feb 3, 2015 $9.99N/A (N/A)20,000 .. 50,0000%00:00 (00:00)
122 Them - The Summoning May 16, 2014 $4.99N/A (N/A)0 .. 20,0000%00:00 (00:00)
123 Pro Cycling Manager 2014 Jun 19, 2014 $9.99N/A (N/A)20,000 .. 50,0000%00:00 (00:00)
124 LUXOR: Mah Jong Jul 13, 2009 $9.99N/A (N/A)50,000 .. 100,0000%00:00 (00:00)
125 Escape The Past Sep 14, 2016 $4.99N/A (N/A)0 .. 20,0001.61%02:02 (00:40)
126 Gnomes Garden Dec 18, 2015 $4.99N/A (N/A)50,000 .. 100,0000%00:00 (00:00)

Tags over time:

Access restricted.

This feature is only available to users with special access rights. Sorry.

If you want to proceed, you need to register or log in first and then back Steam Spy on Patreon. Look for Indie or Pro pledge.

Don't forget to use the same email as on Steam Spy!

Owners of this game also own:

Access restricted.

This feature is only available to users with special access rights. Sorry.

If you want to proceed, you need to register or log in first and then back Steam Spy on Patreon. Look for Indie or Pro pledge.

Don't forget to use the same email as on Steam Spy!

Playtime distribution:

Access restricted.

This feature is only available to users with special access rights. Sorry.

If you want to proceed, you need to register or log in first and then back Steam Spy on Patreon. Look for Indie or Pro pledge.

Don't forget to use the same email as on Steam Spy!

Playtime (2 weeks):

Access restricted.

This feature is only available to users with special access rights. Sorry.

If you want to proceed, you need to register or log in first and then back Steam Spy on Patreon. Look for Indie or Pro pledge.

Don't forget to use the same email as on Steam Spy!

User reviews:

Login required.

Please register or log in to see this information.